createdAt,value
2023-04-16T00:01:46.710Z,97078.95
2023-04-16T00:04:16.051Z,97079.46
2023-04-16T00:06:45.811Z,97079.24
2023-04-16T00:09:15.517Z,97079.06
2023-04-16T00:11:45.315Z,97075.98
2023-04-16T00:14:15.286Z,97081.02
2023-04-16T00:16:44.995Z,97078.55
2023-04-16T00:19:14.962Z,97074.39
2023-04-16T00:21:44.292Z,97076.62
2023-04-16T00:24:13.283Z,97077.76
2023-04-16T00:26:45.051Z,97076.50
2023-04-16T00:29:14.557Z,97079.95
2023-04-16T00:31:43.716Z,97080.90
2023-04-16T00:34:12.775Z,97085.94
2023-04-16T00:36:43.437Z,97088.96
2023-04-16T00:39:12.900Z,97087.20
2023-04-16T00:41:45.044Z,97086.05
2023-04-16T00:44:15.608Z,97085.69
2023-04-16T00:46:45.368Z,97088.06
2023-04-16T00:49:16.460Z,97081.02
2023-04-16T00:51:47.481Z,97080.90
2023-04-16T00:54:16.619Z,97082.70
2023-04-16T00:56:45.845Z,97077.77
2023-04-16T00:59:19.189Z,97079.57
2023-04-16T01:01:49.436Z,97077.23
2023-04-16T01:04:19.290Z,97077.48
2023-04-16T01:06:53.071Z,97074.14
2023-04-16T01:09:23.365Z,97076.63
2023-04-16T01:11:52.876Z,97075.25
2023-04-16T01:14:24.101Z,97079.77
2023-04-16T01:16:53.945Z,97080.47
2023-04-16T01:19:23.310Z,97075.08
2023-04-16T01:21:54.834Z,97077.82
2023-04-16T01:24:24.025Z,97073.10
2023-04-16T01:26:53.510Z,97072.14
2023-04-16T01:29:24.180Z,97068.41
2023-04-16T01:31:54.869Z,97069.25
2023-04-16T01:34:34.418Z,97070.74
2023-04-16T01:37:05.096Z,97070.55
2023-04-16T01:39:34.751Z,97066.67
2023-04-16T01:42:04.242Z,97068.90
2023-04-16T01:44:35.767Z,97066.09
2023-04-16T01:47:05.704Z,97063.58
2023-04-16T01:49:35.782Z,97061.48
2023-04-16T01:52:05.083Z,97065.19
2023-04-16T01:54:34.545Z,97063.38
2023-04-16T01:57:05.166Z,97060.59
2023-04-16T01:59:36.065Z,97055.84
2023-04-16T02:02:15.361Z,97059.04
2023-04-16T02:04:46.056Z,97060.14
2023-04-16T02:07:15.283Z,97061.38
2023-04-16T02:09:44.738Z,97060.23
2023-04-16T02:12:16.259Z,97057.70
2023-04-16T02:14:47.269Z,97056.89
2023-04-16T02:17:18.991Z,97054.56
2023-04-16T02:19:51.737Z,97052.20
2023-04-16T02:22:22.693Z,97054.92
2023-04-16T02:24:54.079Z,97051.55
2023-04-16T02:27:23.479Z,97053.27
2023-04-16T02:29:54.354Z,97049.95
2023-04-16T02:32:26.129Z,97049.48
2023-04-16T02:34:57.422Z,97048.79
2023-04-16T02:37:26.633Z,97054.14
2023-04-16T02:39:56.181Z,97051.39
2023-04-16T02:42:26.292Z,97048.15
2023-04-16T02:44:56.330Z,97052.05
2023-04-16T02:47:26.195Z,97051.11
2023-04-16T02:49:55.847Z,97054.84
2023-04-16T02:52:26.918Z,97052.68
2023-04-16T02:54:56.980Z,97055.98
2023-04-16T02:57:28.534Z,97057.40
2023-04-16T02:59:58.550Z,97059.02
2023-04-16T03:02:28.429Z,97058.67
2023-04-16T03:04:57.627Z,97064.27
2023-04-16T03:07:26.695Z,97071.09
2023-04-16T03:09:57.333Z,97082.30
2023-04-16T03:12:28.025Z,97084.52
2023-04-16T03:14:57.489Z,97084.69
2023-04-16T03:17:27.127Z,97086.48
2023-04-16T03:19:57.101Z,97086.09
2023-04-16T03:22:27.762Z,97093.32
2023-04-16T03:24:59.692Z,97093.69
2023-04-16T03:27:29.634Z,97096.55
2023-04-16T03:29:58.794Z,97100.45
2023-04-16T03:32:31.359Z,97101.30
2023-04-16T03:35:02.302Z,97103.69
2023-04-16T03:37:32.485Z,97107.16
2023-04-16T03:40:03.685Z,97109.63
2023-04-16T03:42:36.794Z,97112.10
2023-04-16T03:45:09.672Z,97111.34
2023-04-16T03:47:39.936Z,97112.16
2023-04-16T03:50:12.177Z,97111.84
2023-04-16T03:52:43.280Z,97110.65
2023-04-16T03:55:14.876Z,97109.98
2023-04-16T03:57:44.628Z,97115.42
2023-04-16T04:00:16.305Z,97110.90
2023-04-16T04:03:00.630Z,97114.09
2023-04-16T04:05:29.624Z,97110.96
2023-04-16T04:08:01.737Z,97109.89
2023-04-16T04:10:38.449Z,97109.00
2023-04-16T04:13:08.085Z,97111.17
2023-04-16T04:15:38.591Z,97110.34
2023-04-16T04:18:07.713Z,97106.45
2023-04-16T04:20:41.821Z,97105.95
2023-04-16T04:23:11.231Z,97110.40
2023-04-16T04:25:41.098Z,97111.25
2023-04-16T04:28:10.947Z,97107.00
2023-04-16T04:30:41.105Z,97112.90
2023-04-16T04:33:10.367Z,97108.00
2023-04-16T04:35:40.149Z,97107.34
2023-04-16T04:38:10.492Z,97099.96
2023-04-16T04:40:39.871Z,97098.81
2023-04-16T04:43:10.360Z,97105.52
2023-04-16T04:45:39.176Z,97109.85
2023-04-16T04:48:08.275Z,97111.61
2023-04-16T04:50:37.590Z,97110.24
2023-04-16T04:53:10.479Z,97112.85
2023-04-16T04:55:40.338Z,97112.14
2023-04-16T04:58:09.764Z,97114.61
2023-04-16T05:00:38.871Z,97115.52
2023-04-16T05:03:12.642Z,97119.91
2023-04-16T05:05:41.989Z,97119.95
2023-04-16T05:08:10.886Z,97116.86
2023-04-16T05:10:40.236Z,97114.20
2023-04-16T05:13:09.188Z,97111.51
2023-04-16T05:15:38.377Z,97110.70
2023-04-16T05:18:07.181Z,97108.80
2023-04-16T05:20:37.434Z,97108.23
2023-04-16T05:23:06.377Z,97108.92
2023-04-16T05:25:35.307Z,97108.29
2023-04-16T05:28:04.078Z,97108.64
2023-04-16T05:30:32.911Z,97108.05
2023-04-16T05:33:01.653Z,97108.06
2023-04-16T05:35:30.357Z,97107.73
2023-04-16T05:37:59.205Z,97113.61
2023-04-16T05:40:27.873Z,97109.83
2023-04-16T05:42:56.608Z,97111.04
2023-04-16T05:45:27.473Z,97111.36
2023-04-16T05:47:56.723Z,97110.16
2023-04-16T05:50:25.360Z,97112.28
2023-04-16T05:52:54.356Z,97112.83
2023-04-16T05:55:23.250Z,97112.83
2023-04-16T05:57:51.904Z,97110.08
2023-04-16T06:00:21.133Z,97108.11
2023-04-16T06:02:50.124Z,97105.93
2023-04-16T06:05:19.056Z,97106.76
2023-04-16T06:07:47.718Z,97104.34
2023-04-16T06:10:16.590Z,97105.50
2023-04-16T06:12:45.303Z,97106.41
2023-04-16T06:15:13.932Z,97100.46
2023-04-16T06:17:42.549Z,97104.79
2023-04-16T06:20:12.336Z,97101.79
2023-04-16T06:22:41.079Z,97098.50
2023-04-16T06:25:11.394Z,97096.77
2023-04-16T06:27:40.072Z,97089.98
2023-04-16T06:30:13.741Z,97085.63
2023-04-16T06:32:44.631Z,97085.75
2023-04-16T06:35:13.299Z,97089.06
2023-04-16T06:37:42.071Z,97089.73
2023-04-16T06:40:11.350Z,97091.87
2023-04-16T06:42:39.896Z,97088.05
2023-04-16T06:45:09.689Z,97088.71
2023-04-16T06:47:38.266Z,97089.81
2023-04-16T06:50:07.657Z,97091.91
2023-04-16T06:52:36.419Z,97093.98
2023-04-16T06:55:05.873Z,97094.74
2023-04-16T06:57:36.274Z,97095.47
2023-04-16T07:00:07.034Z,97096.79
2023-04-16T07:02:35.887Z,97098.21
2023-04-16T07:05:05.411Z,97093.02
2023-04-16T07:07:34.106Z,97090.55
2023-04-16T07:10:02.728Z,97089.45
2023-04-16T07:12:32.138Z,97085.05
2023-04-16T07:15:00.779Z,97082.30
2023-04-16T07:17:29.318Z,97085.13
2023-04-16T07:19:57.864Z,97083.01
2023-04-16T07:22:26.502Z,97081.48
2023-04-16T07:24:55.010Z,97077.60
2023-04-16T07:27:23.607Z,97075.66
2023-04-16T07:29:52.243Z,97086.73
2023-04-16T07:32:22.959Z,97089.36
2023-04-16T07:34:51.749Z,97090.21
2023-04-16T07:37:20.707Z,97083.29
2023-04-16T07:39:49.569Z,97086.37
2023-04-16T07:42:18.198Z,97085.27
2023-04-16T07:44:46.758Z,97086.58
2023-04-16T07:47:15.317Z,97083.92
2023-04-16T07:49:45.693Z,97082.21
2023-04-16T07:52:14.422Z,97078.15
2023-04-16T07:54:43.616Z,97076.41
2023-04-16T07:57:12.623Z,97071.85
2023-04-16T07:59:41.615Z,97066.84
2023-04-16T08:02:14.744Z,97062.63
2023-04-16T08:04:44.129Z,97063.95
2023-04-16T08:07:12.783Z,97059.27
2023-04-16T08:09:49.733Z,97059.64
2023-04-16T08:12:18.872Z,97053.80
2023-04-16T08:14:48.217Z,97053.55
2023-04-16T08:17:17.099Z,97053.33
2023-04-16T08:19:45.963Z,97052.54
2023-04-16T08:22:15.624Z,97051.91
2023-04-16T08:25:02.126Z,97052.00
2023-04-16T08:27:31.067Z,97052.63
2023-04-16T08:29:59.950Z,97047.81
2023-04-16T08:32:28.742Z,97046.80
2023-04-16T08:34:58.397Z,97046.31
2023-04-16T08:37:27.037Z,97046.33
2023-04-16T08:39:56.120Z,97046.70
2023-04-16T08:42:30.645Z,97045.36
2023-04-16T08:45:09.358Z,97043.35
2023-04-16T08:47:38.306Z,97039.20
2023-04-16T08:50:10.866Z,97040.23
2023-04-16T08:52:47.813Z,97034.48
2023-04-16T08:55:19.371Z,97034.27
2023-04-16T08:57:53.822Z,97036.44
2023-04-16T09:00:23.179Z,97032.00
2023-04-16T09:02:52.567Z,97031.73
2023-04-16T09:05:25.990Z,97026.55
2023-04-16T09:07:55.181Z,97028.80
2023-04-16T09:10:27.181Z,97027.55
2023-04-16T09:12:59.311Z,97023.67
2023-04-16T09:15:28.140Z,97022.48
2023-04-16T09:17:59.976Z,97026.61
2023-04-16T09:20:28.842Z,97023.41
2023-04-16T09:22:57.809Z,97020.54
2023-04-16T09:25:26.853Z,97018.46
2023-04-16T09:27:56.029Z,97018.52
2023-04-16T09:30:28.717Z,97019.33
2023-04-16T09:33:23.050Z,97023.97
2023-04-16T09:35:53.779Z,97020.88
2023-04-16T09:38:22.829Z,97017.70
2023-04-16T09:41:08.552Z,97016.04
2023-04-16T09:43:37.812Z,97011.34
2023-04-16T09:46:08.621Z,97011.05
2023-04-16T09:48:37.445Z,97011.36
2023-04-16T09:51:07.769Z,97003.54
2023-04-16T09:53:36.759Z,97002.59
2023-04-16T09:56:07.286Z,96999.96
2023-04-16T09:58:38.322Z,96996.04
2023-04-16T10:01:12.146Z,97000.16
2023-04-16T10:03:41.481Z,96998.73
2023-04-16T10:06:12.992Z,97000.23
2023-04-16T10:08:50.287Z,96995.58
2023-04-16T10:11:21.729Z,96998.62
2023-04-16T10:13:51.733Z,97000.08
2023-04-16T10:16:20.341Z,96997.13
2023-04-16T10:18:49.837Z,96996.08
2023-04-16T10:21:19.472Z,96989.66
2023-04-16T10:23:49.961Z,96990.64
2023-04-16T10:26:19.354Z,96991.20
2023-04-16T10:28:48.150Z,96985.91
2023-04-16T10:31:18.007Z,96982.32
2023-04-16T10:33:47.255Z,96980.97
2023-04-16T10:36:17.598Z,96982.39
2023-04-16T10:38:53.390Z,96981.89
2023-04-16T10:41:22.229Z,96982.91
2023-04-16T10:43:51.941Z,96979.31
2023-04-16T10:46:33.693Z,96984.10
2023-04-16T10:49:04.089Z,96986.54
2023-04-16T10:51:34.773Z,96983.58
2023-04-16T10:54:09.239Z,96983.52
2023-04-16T10:56:38.912Z,96980.22
2023-04-16T10:59:11.008Z,96980.70
2023-04-16T11:01:54.510Z,96980.70
2023-04-16T11:04:27.047Z,96986.76
2023-04-16T11:07:14.407Z,96992.91
2023-04-16T11:10:04.403Z,97001.06
2023-04-16T11:12:39.940Z,97004.65
2023-04-16T11:15:13.652Z,97008.00
2023-04-16T11:17:46.704Z,97014.83
2023-04-16T11:20:24.968Z,97013.20
2023-04-16T11:22:56.356Z,97011.29
2023-04-16T11:25:31.326Z,97005.73
2023-04-16T11:28:00.117Z,97007.89
2023-04-16T11:30:31.553Z,96999.45
2023-04-16T11:33:08.042Z,97002.51
2023-04-16T11:35:38.321Z,97004.23
2023-04-16T11:38:07.769Z,97010.29
2023-04-16T11:40:36.842Z,97007.16
2023-04-16T11:43:14.913Z,97011.81
2023-04-16T11:46:12.802Z,97012.55
2023-04-16T11:48:53.577Z,97009.14
2023-04-16T11:51:24.074Z,97007.90
2023-04-16T11:53:54.552Z,97003.19
2023-04-16T11:56:29.820Z,96999.54
2023-04-16T11:59:16.095Z,96998.26
2023-04-16T12:01:58.088Z,96997.08
2023-04-16T12:04:28.034Z,96999.99
2023-04-16T12:07:14.304Z,97004.55
2023-04-16T12:09:44.041Z,97005.33
2023-04-16T12:12:32.651Z,97005.21
2023-04-16T12:15:05.347Z,97005.85
2023-04-16T12:17:36.306Z,97012.77
2023-04-16T12:20:11.362Z,97010.79
2023-04-16T12:22:50.036Z,97007.46
2023-04-16T12:25:18.825Z,97003.76
2023-04-16T12:27:56.079Z,97006.35
2023-04-16T12:30:30.197Z,97000.63
2023-04-16T12:33:18.678Z,97003.88
2023-04-16T12:35:47.769Z,96996.88
2023-04-16T12:38:17.270Z,96993.11
2023-04-16T12:40:46.519Z,96998.52
2023-04-16T12:43:15.175Z,96996.48
2023-04-16T12:45:44.048Z,96987.39
2023-04-16T12:48:12.841Z,96982.34
2023-04-16T12:50:44.742Z,96979.78
2023-04-16T12:53:13.379Z,96972.63
2023-04-16T12:55:42.793Z,96969.59
2023-04-16T12:58:12.573Z,96967.42
2023-04-16T13:00:41.706Z,96961.58
2023-04-16T13:03:10.595Z,96960.64
2023-04-16T13:05:40.092Z,96954.16
2023-04-16T13:08:08.779Z,96950.13
2023-04-16T13:10:37.668Z,96947.21
2023-04-16T13:13:06.450Z,96944.84
2023-04-16T13:15:35.469Z,96941.34
2023-04-16T13:18:04.461Z,96942.38
2023-04-16T13:20:33.633Z,96942.50
2023-04-16T13:23:05.317Z,96940.39
2023-04-16T13:25:34.074Z,96938.95
2023-04-16T13:28:02.862Z,96939.89
2023-04-16T13:30:33.636Z,96937.52
2023-04-16T13:33:02.408Z,96935.59
2023-04-16T13:35:31.307Z,96934.38
2023-04-16T13:37:59.862Z,96931.73
2023-04-16T13:40:28.930Z,96928.66
2023-04-16T13:42:57.646Z,96931.36
2023-04-16T13:45:28.112Z,96928.77
2023-04-16T13:47:57.108Z,96927.52
2023-04-16T13:50:26.066Z,96930.33
2023-04-16T13:52:55.040Z,96930.35
2023-04-16T13:55:23.929Z,96934.83
2023-04-16T13:57:53.644Z,96940.98
2023-04-16T14:00:22.286Z,96940.35
2023-04-16T14:02:51.028Z,96943.27
2023-04-16T14:05:20.220Z,96947.10
2023-04-16T14:07:49.154Z,96938.04
2023-04-16T14:10:18.088Z,96937.75
2023-04-16T14:12:46.774Z,96931.96
2023-04-16T14:15:15.571Z,96935.45
2023-04-16T14:17:44.984Z,96932.73
2023-04-16T14:20:14.376Z,96927.04
2023-04-16T14:22:44.218Z,96930.38
2023-04-16T14:25:13.070Z,96928.73
2023-04-16T14:27:41.856Z,96931.70
2023-04-16T14:30:10.952Z,96927.78
2023-04-16T14:32:39.749Z,96926.45
2023-04-16T14:35:09.457Z,96933.23
2023-04-16T14:37:39.375Z,96928.30
2023-04-16T14:40:09.164Z,96929.63
2023-04-16T14:42:37.702Z,96936.03
2023-04-16T14:45:08.079Z,96926.02
2023-04-16T14:47:38.408Z,96931.21
2023-04-16T14:50:08.030Z,96927.57
2023-04-16T14:52:36.597Z,96929.78
2023-04-16T14:55:06.241Z,96935.21
2023-04-16T14:57:35.608Z,96935.09
2023-04-16T15:00:08.380Z,96932.75
2023-04-16T15:02:37.736Z,96930.33
2023-04-16T15:05:10.064Z,96935.45
2023-04-16T15:07:38.627Z,96933.79
2023-04-16T15:10:09.462Z,96931.13
2023-04-16T15:12:38.992Z,96934.49
2023-04-16T15:15:08.908Z,96939.96
2023-04-16T15:17:37.833Z,96943.77
2023-04-16T15:20:08.555Z,96943.69
2023-04-16T15:22:37.318Z,96941.00
2023-04-16T15:25:07.241Z,96939.08
2023-04-16T15:27:36.715Z,96941.01
2023-04-16T15:30:06.772Z,96945.53
2023-04-16T15:32:35.580Z,96945.11
2023-04-16T15:35:05.302Z,96946.80
2023-04-16T15:37:33.839Z,96951.38
2023-04-16T15:40:05.950Z,96953.45
2023-04-16T15:42:35.196Z,96955.71
2023-04-16T15:45:04.294Z,96956.21
2023-04-16T15:47:34.214Z,96956.70
2023-04-16T15:50:03.647Z,96957.31
2023-04-16T15:52:32.393Z,96968.35
2023-04-16T15:55:03.610Z,96957.67
2023-04-16T15:57:32.945Z,96960.23
2023-04-16T16:02:34.515Z,96965.77
2023-04-16T16:05:03.929Z,96961.38
2023-04-16T16:07:32.506Z,96966.09
2023-04-16T16:10:01.370Z,96971.02
2023-04-16T16:12:30.889Z,96978.63
2023-04-16T16:14:59.482Z,96976.31
2023-04-16T16:17:29.230Z,96983.45
2023-04-16T16:19:59.102Z,96983.46
2023-04-16T16:22:27.684Z,96984.53
2023-04-16T16:24:58.106Z,96983.29
2023-04-16T16:27:26.690Z,96976.13
2023-04-16T16:29:55.581Z,96979.40
2023-04-16T16:32:24.058Z,96982.00
2023-04-16T16:34:52.844Z,96982.25
2023-04-16T16:37:21.636Z,96990.41
2023-04-16T16:39:50.328Z,96990.52
2023-04-16T16:42:19.420Z,96994.52
2023-04-16T16:44:49.068Z,97000.55
2023-04-16T16:47:17.810Z,97001.38
2023-04-16T16:49:46.544Z,97005.10
2023-04-16T16:52:15.189Z,97013.02
2023-04-16T16:54:43.969Z,97014.71
2023-04-16T16:57:13.067Z,97023.19
2023-04-16T16:59:41.544Z,97020.65
2023-04-16T17:02:10.168Z,97024.69
2023-04-16T17:04:39.372Z,97029.04
2023-04-16T17:07:07.911Z,97034.92
2023-04-16T17:09:38.038Z,97032.36
2023-04-16T17:12:06.557Z,97034.49
2023-04-16T17:14:35.951Z,97031.96
2023-04-16T17:17:04.722Z,97037.58
2023-04-16T17:19:33.603Z,97040.55
2023-04-16T17:22:03.402Z,97038.09
2023-04-16T17:24:32.093Z,97037.73
2023-04-16T17:27:01.913Z,97039.98
2023-04-16T17:29:31.234Z,97040.34
2023-04-16T17:31:59.920Z,97047.42
2023-04-16T17:34:28.775Z,97050.37
2023-04-16T17:36:57.466Z,97053.45
2023-04-16T17:39:26.364Z,97058.67
2023-04-16T17:41:58.731Z,97058.96
2023-04-16T17:44:28.448Z,97062.11
2023-04-16T17:46:57.440Z,97068.98
2023-04-16T17:49:26.017Z,97070.49
2023-04-16T17:51:55.005Z,97074.94
2023-04-16T17:54:24.835Z,97079.61
2023-04-16T17:56:53.503Z,97083.33
2023-04-16T17:59:22.289Z,97082.73
2023-04-16T18:01:50.994Z,97085.41
2023-04-16T18:04:19.909Z,97085.17
2023-04-16T18:06:48.869Z,97089.66
2023-04-16T18:09:18.295Z,97087.64
2023-04-16T18:11:46.959Z,97090.13
2023-04-16T18:14:20.147Z,97090.92
2023-04-16T18:16:49.564Z,97092.20
2023-04-16T18:19:18.319Z,97098.23
2023-04-16T18:21:46.860Z,97100.14
2023-04-16T18:24:16.124Z,97106.73
2023-04-16T18:26:46.668Z,97111.48
2023-04-16T18:29:17.726Z,97115.09
2023-04-16T18:31:46.826Z,97114.48
2023-04-16T18:34:16.229Z,97117.31
2023-04-16T18:36:45.069Z,97118.58
2023-04-16T18:39:14.368Z,97113.89
2023-04-16T18:41:43.873Z,97112.85
2023-04-16T18:44:12.861Z,97110.34
2023-04-16T18:46:41.503Z,97107.03
2023-04-16T18:49:10.532Z,97106.27
2023-04-16T18:51:40.355Z,97101.74
2023-04-16T18:54:09.339Z,97093.16
2023-04-16T18:56:38.032Z,97091.01
2023-04-16T18:59:07.016Z,97089.15
2023-04-16T19:01:35.602Z,97084.77
2023-04-16T19:04:04.751Z,97087.35
2023-04-16T19:06:33.394Z,97100.92
2023-04-16T19:09:01.964Z,97107.46
2023-04-16T19:11:30.965Z,97105.22
2023-04-16T19:14:02.393Z,97101.77
2023-04-16T19:16:31.202Z,97102.11
2023-04-16T19:18:59.886Z,97098.73
2023-04-16T19:21:28.596Z,97092.07
2023-04-16T19:23:58.817Z,97085.09
2023-04-16T19:26:27.480Z,97086.69
2023-04-16T19:28:56.070Z,97082.48
2023-04-16T19:31:26.518Z,97080.86
2023-04-16T19:33:56.303Z,97078.58
2023-04-16T19:36:25.198Z,97080.02
2023-04-16T19:38:53.777Z,97077.98
2023-04-16T19:41:22.360Z,97077.19
2023-04-16T19:43:50.957Z,97075.60
2023-04-16T19:46:19.848Z,97075.98
2023-04-16T19:48:48.718Z,97071.55
2023-04-16T19:51:17.510Z,97071.37
2023-04-16T19:53:46.603Z,97072.47
2023-04-16T19:56:16.243Z,97072.73
2023-04-16T19:58:45.201Z,97071.05
2023-04-16T20:01:14.057Z,97073.86
2023-04-16T20:03:42.898Z,97071.40
2023-04-16T20:06:11.776Z,97067.20
2023-04-16T20:08:41.283Z,97063.67
2023-04-16T20:11:09.866Z,97061.45
2023-04-16T20:13:39.260Z,97062.66
2023-04-16T20:16:09.583Z,97059.82
2023-04-16T20:18:41.623Z,97054.55
2023-04-16T20:21:11.043Z,97051.48
2023-04-16T20:23:39.850Z,97050.19
2023-04-16T20:26:08.635Z,97048.70
2023-04-16T20:28:37.314Z,97047.91
2023-04-16T20:31:06.193Z,97049.63
2023-04-16T20:33:34.992Z,97047.18
2023-04-16T20:36:04.094Z,97047.05
2023-04-16T20:38:34.535Z,97049.79
2023-04-16T20:41:14.868Z,97048.96
2023-04-16T20:43:44.277Z,97049.68
2023-04-16T20:46:13.187Z,97048.70
2023-04-16T20:48:41.867Z,97048.14
2023-04-16T20:51:10.850Z,97047.95
2023-04-16T20:53:39.570Z,97047.52
2023-04-16T20:56:09.455Z,97048.95
2023-04-16T20:58:38.034Z,97050.96
2023-04-16T21:01:07.339Z,97047.02
2023-04-16T21:03:36.710Z,97046.16
2023-04-16T21:06:05.726Z,97044.15
2023-04-16T21:08:35.334Z,97041.93
2023-04-16T21:11:03.921Z,97039.61
2023-04-16T21:13:32.613Z,97035.55
2023-04-16T21:16:01.467Z,97037.55
2023-04-16T21:18:30.738Z,97037.36
2023-04-16T21:20:59.583Z,97032.33
2023-04-16T21:23:28.581Z,97030.67
2023-04-16T21:25:58.089Z,97031.36
2023-04-16T21:28:26.659Z,97025.60
2023-04-16T21:30:55.659Z,97022.96
2023-04-16T21:33:24.758Z,97019.87
2023-04-16T21:35:54.511Z,97017.84
2023-04-16T21:38:23.820Z,97018.02
2023-04-16T21:40:56.232Z,97018.39
2023-04-16T21:43:26.310Z,97018.62
2023-04-16T21:45:55.242Z,97016.76
2023-04-16T21:48:24.341Z,97014.12
2023-04-16T21:51:00.230Z,97015.15
2023-04-16T21:53:32.767Z,97011.54
2023-04-16T21:56:01.765Z,97013.23
2023-04-16T21:58:30.550Z,97011.09
2023-04-16T22:00:59.805Z,97012.31
2023-04-16T22:03:30.829Z,97011.14
2023-04-16T22:06:03.368Z,97013.73
2023-04-16T22:08:33.692Z,97012.52
2023-04-16T22:11:03.616Z,97013.94
2023-04-16T22:13:37.231Z,97011.64
2023-04-16T22:16:07.810Z,97011.33
2023-04-16T22:18:39.101Z,97012.36
2023-04-16T22:21:08.486Z,97010.23
2023-04-16T22:23:37.604Z,97010.04
2023-04-16T22:26:06.710Z,97006.98
2023-04-16T22:28:36.522Z,97006.84
2023-04-16T22:31:05.811Z,97008.05
2023-04-16T22:33:36.064Z,97007.05
2023-04-16T22:36:06.049Z,97002.62
2023-04-16T22:38:34.837Z,96998.95
2023-04-16T22:41:03.704Z,96995.88
2023-04-16T22:43:32.801Z,96996.85
2023-04-16T22:46:05.016Z,96997.50
2023-04-16T22:48:36.834Z,96993.36
2023-04-16T22:51:09.323Z,96993.48
2023-04-16T22:53:38.901Z,96995.66
2023-04-16T22:56:08.207Z,96992.94
2023-04-16T22:58:37.722Z,96996.33
2023-04-16T23:01:07.589Z,96994.30
2023-04-16T23:03:37.347Z,96988.50
2023-04-16T23:06:07.257Z,96987.41
2023-04-16T23:08:36.687Z,96979.69
2023-04-16T23:11:05.954Z,96979.16
2023-04-16T23:13:35.155Z,96973.39
2023-04-16T23:16:04.978Z,96969.91
2023-04-16T23:18:34.346Z,96970.60
2023-04-16T23:21:04.399Z,96970.13
2023-04-16T23:23:33.961Z,96972.86
2023-04-16T23:26:04.136Z,96974.81
2023-04-16T23:28:33.619Z,96973.64
2023-04-16T23:31:04.713Z,96972.57
2023-04-16T23:33:36.478Z,96972.37
2023-04-16T23:36:06.915Z,96968.72
2023-04-16T23:38:36.460Z,96968.82
2023-04-16T23:41:05.777Z,96970.48
2023-04-16T23:43:36.055Z,96967.05
2023-04-16T23:46:06.561Z,96964.13
2023-04-16T23:48:37.422Z,96966.32
2023-04-16T23:51:07.607Z,96966.50
2023-04-16T23:53:37.383Z,96966.20
2023-04-16T23:56:07.995Z,96962.92
2023-04-16T23:58:38.228Z,96960.65
